Time;durP1;ratioP1;P1;durP2;ratioP2;P2;SDS_P1;SDS_P2;PMS_P1;PMS_P2;Temp;Humidity;BMP_temperature;BMP_pressure;BME280_temperature;BME280_humidity;BME280_pressure;Samples;Min_cycle;Max_cycle;Signal;HPM_P1;HPM_P2
2023/10/06 00:01:42;;;;;;;23.73;9.63;;;;;;;16.02;89.42;95839.41;5009136;28;20247;-70
2023/10/06 00:04:15;;;;;;;19.57;9.20;;;;;;;15.76;90.54;95834.22;5001781;28;20781;-69
2023/10/06 00:06:45;;;;;;;19.93;9.07;;;;;;;15.97;89.62;95831.31;5024073;28;20607;-70
2023/10/06 00:09:28;;;;;;;20.80;9.73;;;;;;;15.82;90.60;95828.13;5042892;28;20744;-69
2023/10/06 00:11:57;;;;;;;21.83;9.60;;;;;;;15.74;91.31;95817.78;5005195;28;20225;-69
2023/10/06 00:17:19;;;;;;;19.00;9.43;;;;;;;15.68;91.48;95823.91;5020281;28;20229;-70
2023/10/06 00:19:45;;;;;;;24.77;9.60;;;;;;;15.71;90.83;95817.41;5015195;28;20234;-70
2023/10/06 00:22:29;;;;;;;18.60;9.40;;;;;;;15.79;90.93;95823.25;5000272;28;20233;-69
2023/10/06 00:24:59;;;;;;;20.97;9.90;;;;;;;15.76;91.08;95822.88;5026585;28;20241;-69
2023/10/06 00:27:30;;;;;;;22.73;9.70;;;;;;;15.46;92.34;95819.91;5003663;28;20801;-70
2023/10/06 00:29:56;;;;;;;21.57;10.03;;;;;;;15.36;92.97;95817.69;5026384;28;20238;-70
2023/10/06 00:32:22;;;;;;;21.77;9.80;;;;;;;15.55;92.59;95810.75;5042171;28;20229;-70
2023/10/06 00:35:08;;;;;;;19.07;9.73;;;;;;;15.70;91.55;95823.69;4994984;28;20237;-70
2023/10/06 00:37:38;;;;;;;17.20;9.30;;;;;;;15.64;91.61;95820.06;5017795;28;20257;-69
2023/10/06 00:40:11;;;;;;;20.83;9.77;;;;;;;15.59;91.98;95819.88;5005047;28;20687;-70
2023/10/06 00:42:37;;;;;;;16.70;9.17;;;;;;;15.50;92.77;95823.75;5020017;28;20299;-69
2023/10/06 00:45:07;;;;;;;22.50;9.87;;;;;;;15.56;91.99;95816.84;5003846;28;20229;-70
2023/10/06 00:47:38;;;;;;;19.47;9.53;;;;;;;15.60;92.50;95818.84;5005325;28;20329;-71
2023/10/06 00:50:07;;;;;;;17.13;9.30;;;;;;;15.77;91.45;95817.38;5015880;28;20250;-70
2023/10/06 00:52:34;;;;;;;18.33;9.23;;;;;;;15.67;91.49;95816.19;5016089;28;20260;-69
2023/10/06 00:55:05;;;;;;;21.47;9.80;;;;;;;15.78;90.99;95823.47;5002358;28;20295;-69
2023/10/06 00:57:31;;;;;;;18.13;9.03;;;;;;;15.88;90.83;95832.56;5015811;28;20234;-70
2023/10/06 00:59:58;;;;;;;21.67;10.17;;;;;;;15.78;91.23;95826.09;4999640;28;20234;-70
2023/10/06 01:02:24;;;;;;;18.67;9.67;;;;;;;15.83;90.78;95829.75;5012144;28;20298;-70
2023/10/06 01:04:52;;;;;;;21.53;9.50;;;;;;;15.91;90.93;95820.75;5017012;28;20241;-70
2023/10/06 01:07:18;;;;;;;21.07;9.20;;;;;;;15.88;90.86;95829.91;5006723;28;20323;-70
2023/10/06 01:09:57;;;;;;;19.93;9.53;;;;;;;15.68;91.62;95825.72;5015679;28;20225;-70
2023/10/06 01:12:24;;;;;;;20.47;9.30;;;;;;;15.61;92.30;95822.31;5007001;28;20316;-69
2023/10/06 01:14:51;;;;;;;18.87;9.97;;;;;;;15.55;91.92;95821.31;5025563;28;20233;-70
2023/10/06 01:17:18;;;;;;;18.67;9.80;;;;;;;15.40;92.63;95818.09;5003295;28;20371;-70
2023/10/06 01:20:05;;;;;;;19.00;9.97;;;;;;;15.20;94.35;95817.31;5003039;28;20323;-69
2023/10/06 01:22:30;;;;;;;22.07;9.30;;;;;;;15.40;92.81;95818.88;5015872;28;20325;-69
2023/10/06 01:24:58;;;;;;;19.10;9.57;;;;;;;15.31;93.53;95809.56;5022529;28;20674;-71
2023/10/06 01:27:26;;;;;;;23.40;10.20;;;;;;;15.37;93.25;95807.94;5009229;28;20268;-70
2023/10/06 01:32:41;;;;;;;18.93;9.73;;;;;;;15.63;91.95;95818.44;5018692;28;20247;-70
2023/10/06 01:35:12;;;;;;;21.83;9.80;;;;;;;15.59;91.72;95822.53;5029297;28;20783;-70
2023/10/06 01:37:44;;;;;;;23.47;9.90;;;;;;;15.55;91.85;95829.22;5011525;28;20342;-69
2023/10/06 01:42:51;;;;;;;18.83;10.30;;;;;;;15.38;92.51;95830.69;5015590;28;20248;-69
2023/10/06 01:45:21;;;;;;;19.37;10.17;;;;;;;15.52;91.73;95837.56;5000488;28;20724;-70
2023/10/06 01:47:56;;;;;;;18.30;9.17;;;;;;;15.64;90.80;95835.09;5000951;28;20900;-69
2023/10/06 01:50:28;;;;;;;20.43;9.60;;;;;;;15.61;90.59;95836.31;5015557;28;20244;-69
2023/10/06 01:52:57;;;;;;;23.50;10.30;;;;;;;15.56;90.94;95830.84;5015774;28;20303;-70
2023/10/06 01:55:24;;;;;;;19.40;9.53;;;;;;;15.53;91.37;95831.25;5031205;28;20226;-71
2023/10/06 01:57:54;;;;;;;19.67;9.33;;;;;;;15.55;90.91;95837.13;5007144;28;20246;-70
2023/10/06 02:00:26;;;;;;;18.40;9.20;;;;;;;15.49;91.14;95846.72;5028418;28;20221;-70
2023/10/06 02:02:52;;;;;;;19.00;9.53;;;;;;;15.65;90.63;95839.34;5002863;28;20575;-70
2023/10/06 02:05:20;;;;;;;19.23;9.23;;;;;;;15.35;91.35;95846.91;5007469;28;20234;-70
2023/10/06 02:07:46;;;;;;;19.60;9.33;;;;;;;15.41;91.77;95848.72;5024120;28;20232;-70
2023/10/06 02:10:15;;;;;;;17.20;8.97;;;;;;;15.49;90.69;95841.44;5011728;28;20234;-70
2023/10/06 02:12:42;;;;;;;20.47;9.23;;;;;;;15.34;91.73;95840.81;5016871;28;20236;-70
2023/10/06 02:15:13;;;;;;;18.10;9.20;;;;;;;15.38;91.36;95843.88;5001719;28;20253;-70
2023/10/06 02:17:42;;;;;;;21.30;9.37;;;;;;;15.24;91.82;95837.78;5029589;28;20235;-70
2023/10/06 02:20:51;;;;;;;17.07;9.00;;;;;;;15.08;92.52;95848.78;5022523;28;20844;-70
2023/10/06 02:23:00;;;;;;;20.43;8.83;;;;;;;15.28;91.99;95849.56;5018442;28;20324;-69
2023/10/06 02:25:26;;;;;;;23.20;9.23;;;;;;;15.39;91.00;95848.94;5017490;28;20257;-70
2023/10/06 02:27:53;;;;;;;19.47;8.97;;;;;;;15.20;91.69;95847.13;5017126;28;20313;-70
2023/10/06 02:30:24;;;;;;;21.30;8.90;;;;;;;15.05;92.23;95854.44;4998132;28;20241;-69
2023/10/06 02:32:51;;;;;;;19.13;8.83;;;;;;;14.99;93.27;95855.28;5008293;28;20237;-69
2023/10/06 02:35:17;;;;;;;17.33;8.53;;;;;;;15.06;92.98;95860.53;5015091;28;20260;-70
2023/10/06 02:37:46;;;;;;;16.97;8.50;;;;;;;15.23;91.67;95859.09;5013008;28;20313;-69
2023/10/06 02:40:12;;;;;;;17.80;8.50;;;;;;;15.16;91.54;95867.03;5014232;28;20237;-69
2023/10/06 02:42:46;;;;;;;23.67;8.83;;;;;;;15.23;91.35;95864.38;5016866;28;20234;-70
2023/10/06 02:45:20;;;;;;;20.50;8.70;;;;;;;15.36;90.89;95865.16;5003886;28;20934;-70
2023/10/06 02:47:45;;;;;;;16.87;8.40;;;;;;;15.33;91.36;95870.06;5017525;28;20287;-70
2023/10/06 02:50:18;;;;;;;18.27;8.20;;;;;;;15.36;91.25;95865.16;5002194;28;20298;-70
2023/10/06 02:52:46;;;;;;;20.13;8.93;;;;;;;15.34;90.97;95863.75;5029695;28;20743;-70
2023/10/06 02:55:30;;;;;;;17.57;8.63;;;;;;;15.39;91.12;95866.56;4990849;28;20260;-70
2023/10/06 02:57:57;;;;;;;17.00;8.53;;;;;;;15.27;91.27;95862.94;5004272;28;20240;-71
2023/10/06 03:02:55;;;;;;;17.70;9.00;;;;;;;15.13;91.91;95863.97;5012296;28;20218;-70
2023/10/06 03:05:38;;;;;;;18.50;8.80;;;;;;;15.18;92.00;95859.72;5008567;28;20225;-71
2023/10/06 03:08:11;;;;;;;16.97;8.60;;;;;;;15.32;91.54;95858.69;4998151;28;20745;-70
2023/10/06 03:10:43;;;;;;;19.60;8.23;;;;;;;15.42;90.76;95852.97;5014824;28;20314;-69
2023/10/06 03:13:24;;;;;;;16.97;8.13;;;;;;;15.49;90.74;95853.81;5015434;28;20236;-69
2023/10/06 03:15:50;;;;;;;16.03;8.20;;;;;;;15.75;89.79;95856.38;5014477;28;20237;-70
2023/10/06 03:18:16;;;;;;;19.07;8.10;;;;;;;15.87;88.29;95859.16;5019347;28;20256;-70
2023/10/06 03:20:49;;;;;;;16.13;7.90;;;;;;;15.82;88.51;95861.63;5017354;28;20226;-69
2023/10/06 03:26:04;;;;;;;17.30;7.87;;;;;;;15.37;90.79;95863.34;5018776;28;20232;-70
2023/10/06 03:28:36;;;;;;;19.23;8.50;;;;;;;15.38;90.81;95860.50;5000949;28;20759;-70
2023/10/06 03:33:44;;;;;;;14.57;7.53;;;;;;;15.36;90.18;95862.53;5018477;28;20252;-69
2023/10/06 03:36:11;;;;;;;19.30;7.63;;;;;;;15.48;90.42;95858.28;5016735;28;20291;-69
2023/10/06 03:38:42;;;;;;;15.77;7.60;;;;;;;15.53;90.14;95860.28;5035275;28;20263;-69
2023/10/06 03:41:25;;;;;;;17.47;7.83;;;;;;;15.48;90.12;95858.28;5031128;28;20229;-69
2023/10/06 03:43:51;;;;;;;16.97;8.07;;;;;;;15.14;91.53;95862.97;5018300;28;20237;-70
2023/10/06 03:46:22;;;;;;;18.70;7.80;;;;;;;15.05;91.85;95866.81;5009930;28;20235;-69
2023/10/06 03:48:50;;;;;;;18.27;7.67;;;;;;;15.14;90.67;95866.41;5022910;28;20237;-69
2023/10/06 03:51:17;;;;;;;14.40;7.27;;;;;;;15.16;90.83;95864.41;5003371;28;20313;-69
2023/10/06 03:53:45;;;;;;;15.00;7.87;;;;;;;15.15;90.82;95864.56;5034173;28;20300;-69
2023/10/06 03:56:12;;;;;;;16.37;7.93;;;;;;;15.18;91.20;95861.53;4997230;28;20229;-70
2023/10/06 03:58:38;;;;;;;18.93;8.10;;;;;;;15.23;90.60;95861.75;5030835;28;20334;-70
2023/10/06 04:01:11;;;;;;;18.60;8.33;;;;;;;15.19;91.19;95863.97;5003048;28;20707;-70
2023/10/06 04:03:38;;;;;;;20.00;8.30;;;;;;;15.18;91.44;95853.63;4997193;28;20238;-70
2023/10/06 04:06:04;;;;;;;19.77;8.53;;;;;;;15.19;90.98;95868.44;5001591;28;20222;-70
2023/10/06 04:08:30;;;;;;;20.97;9.07;;;;;;;15.18;90.67;95853.63;5032501;28;20222;-70
2023/10/06 04:10:58;;;;;;;18.43;8.63;;;;;;;15.02;91.79;95857.47;5001467;28;21007;-69
2023/10/06 04:13:26;;;;;;;19.57;8.93;;;;;;;15.10;91.15;95859.09;5001953;28;20300;-70
2023/10/06 04:15:53;;;;;;;22.33;9.10;;;;;;;15.25;90.46;95863.16;5030495;28;20316;-70
2023/10/06 04:18:23;;;;;;;20.63;9.03;;;;;;;15.08;90.78;95866.41;5017437;28;20230;-70
2023/10/06 04:20:50;;;;;;;22.27;9.37;;;;;;;15.07;90.63;95865.59;5009128;28;20237;-69
2023/10/06 04:23:22;;;;;;;21.57;9.67;;;;;;;14.83;92.46;95871.50;5001955;28;20344;-70
2023/10/06 04:25:49;;;;;;;18.57;8.93;;;;;;;14.72;93.02;95870.28;5009891;28;20310;-70
2023/10/06 04:28:16;;;;;;;21.83;9.17;;;;;;;14.72;92.40;95880.81;5002510;28;20308;-69
2023/10/06 04:30:42;;;;;;;22.37;10.27;;;;;;;14.79;92.51;95876.34;5002112;28;20257;-69
2023/10/06 04:33:11;;;;;;;21.13;9.40;;;;;;;14.83;92.27;95877.56;5026127;28;20591;-69
2023/10/06 04:35:55;;;;;;;17.60;8.67;;;;;;;14.89;92.09;95880.41;5002590;28;20326;-69
2023/10/06 04:38:21;;;;;;;21.93;9.37;;;;;;;14.87;91.19;95869.25;5001245;28;20658;-70
2023/10/06 04:40:47;;;;;;;20.03;8.87;;;;;;;14.81;92.40;95881.41;5032438;28;20226;-70
2023/10/06 04:43:17;;;;;;;24.20;9.13;;;;;;;14.89;92.04;95877.78;5014090;28;20229;-69
2023/10/06 04:45:44;;;;;;;22.80;9.10;;;;;;;14.81;92.27;95879.59;5002023;28;20234;-69
2023/10/06 04:48:09;;;;;;;25.47;9.60;;;;;;;14.55;93.20;95891.91;5009891;28;20245;-69
2023/10/06 04:50:35;;;;;;;25.17;9.37;;;;;;;14.72;92.97;95896.63;5016844;28;20243;-69
2023/10/06 04:53:05;;;;;;;19.10;9.17;;;;;;;14.84;92.51;95899.47;5020022;28;20295;-69
2023/10/06 04:55:31;;;;;;;22.37;9.37;;;;;;;14.96;91.39;95897.84;5000370;28;20300;-69
2023/10/06 04:57:57;;;;;;;20.43;9.40;;;;;;;15.05;91.48;95901.09;4999624;28;20232;-70
2023/10/06 05:00:27;;;;;;;21.40;9.93;;;;;;;14.91;91.79;95907.38;5016060;28;20237;-69
2023/10/06 05:02:52;;;;;;;22.83;10.07;;;;;;;14.68;93.18;95908.59;5019087;28;20287;-70
2023/10/06 05:05:21;;;;;;;23.00;9.43;;;;;;;14.60;93.05;95908.75;5013883;28;20230;-69
2023/10/06 05:07:48;;;;;;;20.80;9.67;;;;;;;14.67;93.40;95914.03;5002655;28;20229;-69
2023/10/06 05:10:14;;;;;;;21.53;9.40;;;;;;;14.60;93.53;95915.84;5005255;28;20288;-69
2023/10/06 05:12:42;;;;;;;26.87;10.00;;;;;;;14.59;93.86;95917.66;5013719;28;20341;-70
2023/10/06 05:15:09;;;;;;;23.90;11.80;;;;;;;14.65;93.67;95926.59;5003506;28;20237;-70
2023/10/06 05:17:36;;;;;;;24.87;10.00;;;;;;;14.63;94.17;95921.53;5007880;28;20719;-70
2023/10/06 05:20:04;;;;;;;21.83;9.80;;;;;;;14.80;93.42;95930.69;5007213;28;20288;-70
2023/10/06 05:22:30;;;;;;;23.10;9.83;;;;;;;14.80;93.48;95932.53;5023460;28;20241;-70
2023/10/06 05:24:59;;;;;;;25.70;10.70;;;;;;;14.98;93.18;95937.19;5001431;28;20333;-70
2023/10/06 05:27:25;;;;;;;22.20;11.00;;;;;;;15.13;92.20;95928.09;4998492;28;20241;-71
2023/10/06 05:29:51;;;;;;;25.37;10.73;;;;;;;15.21;91.72;95932.34;5002036;28;21050;-70
2023/10/06 05:32:17;;;;;;;21.73;10.47;;;;;;;15.21;90.85;95935.78;5016218;28;20260;-70
2023/10/06 05:34:43;;;;;;;27.63;11.27;;;;;;;15.31;90.54;95936.19;4999512;28;20225;-69
2023/10/06 05:37:09;;;;;;;23.17;10.70;;;;;;;15.30;90.35;95934.59;5015611;28;20233;-70
2023/10/06 05:39:35;;;;;;;21.00;9.30;;;;;;;15.44;89.58;95940.66;5028758;28;20226;-70
2023/10/06 05:42:02;;;;;;;20.97;9.00;;;;;;;15.54;88.46;95937.63;5002027;28;20229;-69
2023/10/06 05:44:28;;;;;;;15.13;7.50;;;;;;;15.71;87.65;95942.28;5000671;28;20226;-70
2023/10/06 05:46:54;;;;;;;20.37;7.53;;;;;;;15.68;87.94;95937.41;4998958;28;20233;-70
2023/10/06 05:49:23;;;;;;;19.67;7.63;;;;;;;15.90;86.84;95945.91;5013403;28;20229;-70
2023/10/06 05:51:49;;;;;;;17.53;7.47;;;;;;;15.87;86.19;95944.47;5022351;28;20237;-70
2023/10/06 05:54:26;;;;;;;15.90;7.40;;;;;;;15.88;86.58;95951.38;5003496;28;20347;-69
2023/10/06 05:56:53;;;;;;;17.80;7.77;;;;;;;16.02;85.42;95954.81;5006530;28;20363;-70
2023/10/06 05:59:22;;;;;;;18.07;7.53;;;;;;;15.92;86.09;95952.59;5007903;28;20237;-70
2023/10/06 06:01:56;;;;;;;14.50;7.23;;;;;;;16.10;85.31;95957.19;5007128;28;20229;-70
2023/10/06 06:04:27;;;;;;;19.67;7.33;;;;;;;16.15;85.16;95958.22;4998782;28;20321;-71
2023/10/06 06:06:56;;;;;;;21.53;7.77;;;;;;;16.17;85.54;95958.81;5017403;28;20238;-70
2023/10/06 06:09:25;;;;;;;14.67;7.70;;;;;;;16.26;85.52;95962.03;5006422;28;20326;-70
2023/10/06 06:11:51;;;;;;;20.63;8.03;;;;;;;16.35;85.18;95965.25;5018480;28;20260;-71
2023/10/06 06:14:21;;;;;;;15.03;7.20;;;;;;;16.34;85.23;95963.63;5029781;28;20291;-70
2023/10/06 06:16:47;;;;;;;18.57;7.97;;;;;;;16.48;84.48;95973.13;5004158;28;20225;-70
2023/10/06 06:19:13;;;;;;;18.93;7.43;;;;;;;16.56;84.17;95973.72;5012020;28;20231;-70
2023/10/06 06:21:39;;;;;;;13.97;7.47;;;;;;;16.62;83.69;95977.38;5001534;28;20240;-70
2023/10/06 06:24:08;;;;;;;13.60;7.40;;;;;;;16.60;84.26;95976.75;5032151;28;20253;-70
2023/10/06 06:26:37;;;;;;;16.07;7.60;;;;;;;16.53;83.98;95976.78;4982619;28;20762;-70
2023/10/06 06:29:08;;;;;;;16.57;7.47;;;;;;;16.71;83.66;95979.56;5014497;28;20225;-69
2023/10/06 06:31:34;;;;;;;25.53;8.07;;;;;;;16.64;83.57;95976.13;5000884;28;20233;-69
2023/10/06 06:34:04;;;;;;;16.90;7.40;;;;;;;16.73;83.45;95989.91;4999910;28;20241;-70
2023/10/06 06:36:33;;;;;;;18.80;7.90;;;;;;;16.77;83.24;95981.34;4998911;28;20302;-70
2023/10/06 06:38:58;;;;;;;18.97;7.53;;;;;;;17.01;82.72;95984.25;4994531;28;20238;-70
2023/10/06 06:41:25;;;;;;;20.63;7.77;;;;;;;17.06;82.55;95987.06;5008674;28;20843;-70
2023/10/06 06:43:58;;;;;;;15.50;7.33;;;;;;;17.15;82.46;95991.06;5014850;28;20668;-69
2023/10/06 06:46:26;;;;;;;16.60;7.90;;;;;;;17.11;82.39;95996.00;5012932;28;20230;-70
2023/10/06 06:48:52;;;;;;;17.10;7.60;;;;;;;17.11;82.47;95995.19;5030511;28;20237;-70
2023/10/06 06:51:18;;;;;;;17.07;7.90;;;;;;;17.12;82.58;95999.47;5022468;28;20282;-70
2023/10/06 06:53:45;;;;;;;14.80;7.57;;;;;;;17.21;82.08;96000.81;5003362;28;20757;-69
2023/10/06 06:56:11;;;;;;;15.20;8.20;;;;;;;17.31;81.85;95993.22;5012838;28;20298;-70
2023/10/06 06:58:37;;;;;;;21.53;7.63;;;;;;;17.47;81.17;95998.81;5011034;28;20303;-70
2023/10/06 07:01:06;;;;;;;13.90;7.50;;;;;;;17.44;80.85;96001.88;5026513;28;20237;-69
2023/10/06 07:03:32;;;;;;;18.63;7.60;;;;;;;17.46;81.14;96005.13;4998724;28;20279;-70
2023/10/06 07:05:59;;;;;;;17.63;7.47;;;;;;;17.46;81.01;95994.53;5018522;28;20230;-69
2023/10/06 07:08:27;;;;;;;16.90;7.93;;;;;;;17.54;80.65;95998.78;5023143;28;20241;-70
2023/10/06 07:10:53;;;;;;;18.97;7.13;;;;;;;17.42;80.63;95989.88;4994238;28;20230;-69
2023/10/06 07:13:22;;;;;;;14.30;7.30;;;;;;;17.53;80.25;95996.34;5015999;28;20857;-70
2023/10/06 07:15:49;;;;;;;17.70;7.30;;;;;;;17.58;80.30;96002.59;5023834;28;20308;-70
2023/10/06 07:18:15;;;;;;;15.37;7.63;;;;;;;17.65;79.97;96005.22;5022624;28;20229;-69
2023/10/06 07:20:41;;;;;;;19.30;7.33;;;;;;;17.77;79.73;95998.19;5035490;28;20379;-69
2023/10/06 07:23:07;;;;;;;21.30;7.93;;;;;;;17.79;79.65;95993.47;5001171;28;20235;-70
2023/10/06 07:25:33;;;;;;;18.07;7.07;;;;;;;17.80;79.22;96003.84;5021457;28;21164;-70
2023/10/06 07:27:59;;;;;;;18.87;7.40;;;;;;;17.84;78.92;96002.38;5016786;28;20295;-69
2023/10/06 07:30:26;;;;;;;17.53;7.53;;;;;;;17.81;79.16;95996.72;4993050;28;20242;-70
2023/10/06 07:32:54;;;;;;;17.00;7.80;;;;;;;17.74;79.18;95988.84;5005555;28;20240;-70
2023/10/06 07:35:30;;;;;;;17.13;7.40;;;;;;;17.84;79.14;95988.34;5003241;28;20252;-70
2023/10/06 07:37:57;;;;;;;18.57;7.90;;;;;;;17.93;78.38;95992.31;5019321;28;20222;-69
2023/10/06 07:40:23;;;;;;;17.60;7.90;;;;;;;17.94;78.37;95997.41;5002642;28;20230;-70
2023/10/06 07:42:50;;;;;;;21.37;7.97;;;;;;;18.04;77.83;95999.53;5013051;28;20222;-69
2023/10/06 07:45:17;;;;;;;20.37;7.80;;;;;;;18.02;78.08;95993.66;5025827;28;20336;-70
2023/10/06 07:47:43;;;;;;;17.80;7.63;;;;;;;18.14;77.63;95979.47;5016096;28;20235;-70
2023/10/06 07:50:13;;;;;;;20.63;7.63;;;;;;;18.27;77.14;95993.63;4997407;28;20739;-70
2023/10/06 07:52:39;;;;;;;18.67;7.60;;;;;;;18.37;76.62;95986.75;5016199;28;20245;-70
2023/10/06 07:55:09;;;;;;;22.13;8.13;;;;;;;18.42;76.18;95986.09;5018143;28;20319;-70
2023/10/06 07:57:42;;;;;;;21.67;7.93;;;;;;;18.31;76.23;95985.00;4999225;28;20250;-71
2023/10/06 08:00:09;;;;;;;18.60;8.00;;;;;;;18.35;76.32;95985.34;5019553;28;20222;-70
2023/10/06 08:02:43;;;;;;;19.17;7.40;;;;;;;18.35;76.26;95988.00;5004243;28;20238;-69
2023/10/06 08:05:12;;;;;;;16.50;7.43;;;;;;;18.47;76.08;95986.25;4983673;28;20250;-70
2023/10/06 08:07:39;;;;;;;17.30;7.63;;;;;;;18.48;75.51;95988.72;5011946;28;20269;-70
2023/10/06 08:10:06;;;;;;;19.93;7.70;;;;;;;18.48;75.23;95983.41;5020240;28;20237;-70
2023/10/06 08:12:35;;;;;;;21.97;8.00;;;;;;;18.50;75.33;95984.00;5002364;28;20237;-70
2023/10/06 08:15:09;;;;;;;21.53;8.20;;;;;;;18.44;75.19;95982.19;4994059;28;20226;-70
2023/10/06 08:17:36;;;;;;;24.47;8.37;;;;;;;18.48;75.07;95980.75;5032347;28;20253;-70
2023/10/06 08:20:12;;;;;;;19.37;8.00;;;;;;;18.57;74.89;95982.06;5030828;28;20242;-70
2023/10/06 08:22:39;;;;;;;18.83;7.97;;;;;;;18.58;75.00;95988.97;5016831;28;20241;-71
2023/10/06 08:25:09;;;;;;;20.60;7.90;;;;;;;18.68;74.48;95991.09;4990522;28;20230;-71
2023/10/06 08:27:39;;;;;;;16.67;7.87;;;;;;;18.72;74.58;95992.28;5029240;28;20242;-69
2023/10/06 08:30:26;;;;;;;17.33;7.40;;;;;;;18.73;74.15;95992.06;5011730;28;20230;-69
2023/10/06 08:32:52;;;;;;;16.43;7.53;;;;;;;18.74;73.91;95991.03;5006561;28;20233;-69
2023/10/06 08:35:19;;;;;;;19.80;7.53;;;;;;;18.74;74.08;95987.56;5014717;28;20251;-70
2023/10/06 08:37:47;;;;;;;19.83;8.07;;;;;;;18.82;73.28;95996.00;5006101;28;20333;-70
2023/10/06 08:40:19;;;;;;;19.37;7.50;;;;;;;18.93;73.34;95983.03;5016128;28;20281;-69
2023/10/06 08:42:53;;;;;;;20.47;8.23;;;;;;;18.93;73.05;95983.84;5015039;28;20230;-68
2023/10/06 08:45:20;;;;;;;18.50;7.63;;;;;;;18.81;72.98;95986.44;5015469;28;20244;-68
2023/10/06 08:47:50;;;;;;;17.97;7.90;;;;;;;18.89;73.01;95982.66;4992671;28;20617;-69
2023/10/06 08:50:22;;;;;;;16.90;7.53;;;;;;;18.98;72.57;95985.81;5026037;28;20241;-71
2023/10/06 08:52:52;;;;;;;20.60;7.77;;;;;;;18.94;71.96;95985.44;5015224;28;20302;-70
2023/10/06 08:55:19;;;;;;;17.50;8.10;;;;;;;18.99;72.29;95985.56;5015276;28;20264;-71
2023/10/06 08:57:48;;;;;;;17.37;7.80;;;;;;;19.05;72.07;95979.38;5015698;28;20230;-69
2023/10/06 09:00:15;;;;;;;16.47;7.60;;;;;;;19.06;71.60;95980.97;5008395;28;20232;-69
2023/10/06 09:02:48;;;;;;;15.63;8.47;;;;;;;19.11;71.32;95980.31;5015027;28;20248;-70
2023/10/06 09:05:18;;;;;;;26.70;8.60;;;;;;;19.15;71.30;95982.31;5004293;28;20237;-70
2023/10/06 09:08:04;;;;;;;18.23;8.30;;;;;;;19.16;70.85;95977.78;4981335;28;20299;-70
2023/10/06 09:10:30;;;;;;;16.93;8.20;;;;;;;19.17;70.60;95982.06;5005502;28;20292;-69
2023/10/06 09:13:04;;;;;;;14.67;7.70;;;;;;;19.26;70.35;95975.41;5002174;28;20257;-70
2023/10/06 09:15:30;;;;;;;19.67;8.47;;;;;;;19.24;70.11;95970.31;5017792;28;20244;-72
2023/10/06 09:17:56;;;;;;;21.33;8.53;;;;;;;19.28;69.99;95968.81;4998810;28;20979;-71
2023/10/06 09:20:32;;;;;;;17.90;8.20;;;;;;;19.32;69.78;95966.53;4999821;28;20230;-69
2023/10/06 09:22:58;;;;;;;17.30;8.60;;;;;;;19.32;69.48;95971.84;5023471;28;20328;-71
2023/10/06 09:25:25;;;;;;;17.07;8.20;;;;;;;19.33;69.10;95970.78;4998719;28;20241;-71
2023/10/06 09:28:04;;;;;;;16.27;8.10;;;;;;;19.24;69.00;95970.31;5016280;28;20234;-70
2023/10/06 09:30:30;;;;;;;17.03;8.20;;;;;;;19.23;69.08;95978.50;4997258;28;20246;-71
2023/10/06 09:33:04;;;;;;;15.93;8.20;;;;;;;19.32;68.93;95971.84;4994046;28;20218;-71
2023/10/06 09:35:30;;;;;;;18.37;8.93;;;;;;;19.46;68.90;95973.28;5018353;28;20328;-70
2023/10/06 09:38:17;;;;;;;18.53;8.70;;;;;;;19.44;68.54;95975.34;5020713;28;20325;-70
2023/10/06 09:40:46;;;;;;;15.03;8.10;;;;;;;19.45;68.84;95963.69;5028786;28;20248;-71
2023/10/06 09:43:16;;;;;;;18.80;8.73;;;;;;;19.51;68.25;95968.09;5018924;28;20232;-70
2023/10/06 09:45:42;;;;;;;19.77;8.10;;;;;;;19.52;67.86;95960.91;5020120;28;20325;-70
2023/10/06 09:48:13;;;;;;;17.73;8.17;;;;;;;19.53;67.49;95960.72;5018086;28;20401;-71
2023/10/06 09:50:40;;;;;;;16.30;8.60;;;;;;;19.60;67.45;95958.75;5014993;28;20299;-71
2023/10/06 09:53:08;;;;;;;19.50;8.57;;;;;;;19.71;68.10;95962.44;5016186;28;20960;-71
2023/10/06 09:55:35;;;;;;;16.17;8.37;;;;;;;19.67;67.33;95962.09;5013048;28;20328;-71
2023/10/06 09:58:01;;;;;;;18.40;8.43;;;;;;;19.49;67.08;95955.03;4987483;28;20226;-71
2023/10/06 10:00:29;;;;;;;16.27;8.33;;;;;;;19.56;66.71;95956.78;4999749;28;20327;-70
2023/10/06 10:02:57;;;;;;;14.40;8.70;;;;;;;19.55;66.66;95957.81;5014528;28;20593;-72
2023/10/06 10:05:23;;;;;;;18.60;8.47;;;;;;;19.58;66.25;95955.53;5030569;28;20240;-71
2023/10/06 10:07:49;;;;;;;19.47;8.60;;;;;;;19.62;66.52;95956.66;4996819;28;20214;-71
2023/10/06 10:10:22;;;;;;;19.17;8.60;;;;;;;19.65;65.72;95958.06;5030577;28;20735;-71
2023/10/06 10:13:11;;;;;;;16.70;8.60;;;;;;;19.63;65.21;95952.94;5009423;28;20222;-72
2023/10/06 10:15:52;;;;;;;18.50;8.20;;;;;;;19.82;65.07;95953.69;5027865;28;20330;-71
2023/10/06 10:18:38;;;;;;;15.87;8.00;;;;;;;19.68;64.07;95947.75;5022461;28;20333;-71
2023/10/06 10:21:04;;;;;;;20.00;8.33;;;;;;;19.80;64.26;95950.44;5022801;28;20302;-71
2023/10/06 10:23:31;;;;;;;16.80;7.77;;;;;;;19.92;63.58;95957.34;5013995;28;20328;-72
2023/10/06 10:26:14;;;;;;;13.60;7.53;;;;;;;19.85;63.27;95947.88;4996419;28;20340;-71
2023/10/06 10:28:40;;;;;;;16.90;8.37;;;;;;;19.77;63.09;95945.59;5005960;28;20280;-71
2023/10/06 10:31:06;;;;;;;16.77;8.17;;;;;;;19.71;63.21;95936.69;5002494;28;20235;-71
2023/10/06 10:33:37;;;;;;;18.80;7.73;;;;;;;19.75;61.91;95935.16;5013739;28;20233;-72
2023/10/06 10:36:17;;;;;;;15.20;7.30;;;;;;;19.63;62.14;95929.03;5006473;28;20249;-71
2023/10/06 10:39:16;;;;;;;14.17;7.53;;;;;;;19.62;61.85;95922.13;5032609;28;20306;-72
2023/10/06 10:41:42;;;;;;;12.87;7.30;;;;;;;19.70;61.46;95919.16;5011244;28;20244;-72
2023/10/06 10:44:08;;;;;;;18.30;7.27;;;;;;;19.72;61.28;95927.69;4998293;28;20233;-71
2023/10/06 10:46:48;;;;;;;16.07;7.67;;;;;;;19.81;61.40;95918.31;4995115;28;20697;-71
2023/10/06 10:49:16;;;;;;;15.97;7.43;;;;;;;19.71;60.82;95918.09;5001331;28;20252;-71
2023/10/06 10:52:02;;;;;;;16.73;7.77;;;;;;;19.73;61.20;95908.03;5004308;28;20606;-71
2023/10/06 10:54:31;;;;;;;12.77;7.47;;;;;;;19.82;61.91;95911.94;5003419;28;20376;-72
2023/10/06 10:57:03;;;;;;;16.83;7.47;;;;;;;19.86;61.17;95910.47;5006350;28;20269;-72
2023/10/06 11:00:20;;;;;;;13.67;7.07;;;;;;;19.92;60.27;95903.38;5007566;28;20249;-72
2023/10/06 11:02:48;;;;;;;18.17;7.77;;;;;;;20.01;60.37;95897.47;5028844;28;21032;-71
2023/10/06 11:05:16;;;;;;;13.27;7.33;;;;;;;20.01;60.07;95900.13;5031774;28;20647;-71
2023/10/06 11:08:08;;;;;;;14.57;7.43;;;;;;;20.06;59.89;95896.81;4983871;28;20244;-71
2023/10/06 11:10:33;;;;;;;14.23;7.43;;;;;;;20.10;59.48;95893.44;5013449;28;20245;-71
2023/10/06 11:13:21;;;;;;;15.63;7.37;;;;;;;20.18;59.09;95887.75;5014816;28;20229;-71
2023/10/06 11:15:50;;;;;;;13.47;7.10;;;;;;;20.16;58.02;95889.81;5007077;28;20237;-71
2023/10/06 11:18:18;;;;;;;16.40;7.60;;;;;;;20.28;58.66;95886.34;5017112;28;20279;-71
2023/10/06 11:20:44;;;;;;;14.33;7.00;;;;;;;20.18;57.62;95887.75;5015380;28;20233;-71
2023/10/06 11:23:10;;;;;;;16.17;6.50;;;;;;;20.20;57.67;95887.53;5002233;28;20283;-71
2023/10/06 11:25:42;;;;;;;13.70;6.93;;;;;;;20.14;57.25;95894.56;5007671;28;20677;-73
2023/10/06 11:28:08;;;;;;;13.23;6.77;;;;;;;20.14;57.31;95881.28;5016602;28;20274;-72
2023/10/06 11:30:38;;;;;;;14.40;6.83;;;;;;;20.17;57.45;95886.13;5022417;28;20245;-71
2023/10/06 11:33:05;;;;;;;14.07;6.97;;;;;;;20.21;57.26;95883.00;5007877;28;20906;-70
2023/10/06 11:35:32;;;;;;;18.43;7.10;;;;;;;20.18;56.62;95878.94;5003233;28;20319;-71
2023/10/06 11:38:17;;;;;;;14.97;6.27;;;;;;;20.23;57.04;95878.31;5022867;28;20286;-71
2023/10/06 11:40:43;;;;;;;13.10;6.30;;;;;;;20.21;56.07;95880.31;5020439;28;20665;-71
2023/10/06 11:43:18;;;;;;;11.77;6.73;;;;;;;20.25;56.80;95878.88;5010166;28;20218;-72
2023/10/06 11:45:44;;;;;;;13.57;6.47;;;;;;;20.28;56.24;95884.50;5009708;28;20240;-71
2023/10/06 11:48:29;;;;;;;15.63;6.53;;;;;;;20.25;55.78;95892.97;5018203;28;20234;-71
2023/10/06 11:51:00;;;;;;;14.70;6.03;;;;;;;20.29;55.13;95887.97;5025932;28;20313;-71
2023/10/06 11:53:26;;;;;;;11.43;6.30;;;;;;;20.26;54.65;95881.28;5026790;28;20241;-71